sensor_id;sensor_type;location;lat;lon;timestamp;temperature;humidity
4759;DHT22;2393;50.560;12.636;2023-07-30T00:00:50;17.20;99.90
4759;DHT22;2393;50.560;12.636;2023-07-30T00:03:19;17.20;99.90
4759;DHT22;2393;50.560;12.636;2023-07-30T00:05:54;17.20;99.90
4759;DHT22;2393;50.560;12.636;2023-07-30T00:08:23;17.20;99.90
4759;DHT22;2393;50.560;12.636;2023-07-30T00:10:51;17.30;99.90
4759;DHT22;2393;50.560;12.636;2023-07-30T00:13:19;17.20;99.90
4759;DHT22;2393;50.560;12.636;2023-07-30T00:15:48;17.30;99.90
4759;DHT22;2393;50.560;12.636;2023-07-30T00:18:17;17.30;99.90
4759;DHT22;2393;50.560;12.636;2023-07-30T00:20:46;17.30;99.90
4759;DHT22;2393;50.560;12.636;2023-07-30T00:23:14;17.30;99.90
4759;DHT22;2393;50.560;12.636;2023-07-30T00:25:42;17.20;99.90
4759;DHT22;2393;50.560;12.636;2023-07-30T00:28:10;17.20;99.90
4759;DHT22;2393;50.560;12.636;2023-07-30T00:30:39;17.30;99.90
4759;DHT22;2393;50.560;12.636;2023-07-30T00:33:07;17.30;99.90
4759;DHT22;2393;50.560;12.636;2023-07-30T00:35:35;17.30;99.90
4759;DHT22;2393;50.560;12.636;2023-07-30T00:38:05;17.30;99.90
4759;DHT22;2393;50.560;12.636;2023-07-30T00:40:39;17.20;99.90
4759;DHT22;2393;50.560;12.636;2023-07-30T00:43:07;17.30;99.90
4759;DHT22;2393;50.560;12.636;2023-07-30T00:45:36;17.30;99.90
4759;DHT22;2393;50.560;12.636;2023-07-30T00:48:06;17.20;99.90
4759;DHT22;2393;50.560;12.636;2023-07-30T00:50:35;17.30;99.90
4759;DHT22;2393;50.560;12.636;2023-07-30T00:53:03;17.20;99.90
4759;DHT22;2393;50.560;12.636;2023-07-30T00:55:34;17.20;99.90
4759;DHT22;2393;50.560;12.636;2023-07-30T00:58:03;17.20;99.90
4759;DHT22;2393;50.560;12.636;2023-07-30T01:00:32;17.20;99.90
4759;DHT22;2393;50.560;12.636;2023-07-30T01:03:00;17.20;99.90
4759;DHT22;2393;50.560;12.636;2023-07-30T01:05:29;17.10;99.90
4759;DHT22;2393;50.560;12.636;2023-07-30T01:08:01;17.20;99.90
4759;DHT22;2393;50.560;12.636;2023-07-30T01:10:32;17.20;99.90
4759;DHT22;2393;50.560;12.636;2023-07-30T01:13:04;17.20;99.90
4759;DHT22;2393;50.560;12.636;2023-07-30T01:15:34;17.20;99.90
4759;DHT22;2393;50.560;12.636;2023-07-30T01:18:02;17.20;99.90
4759;DHT22;2393;50.560;12.636;2023-07-30T01:20:31;17.20;99.90
4759;DHT22;2393;50.560;12.636;2023-07-30T01:23:01;17.20;99.90
4759;DHT22;2393;50.560;12.636;2023-07-30T01:25:32;17.30;99.90
4759;DHT22;2393;50.560;12.636;2023-07-30T01:28:01;17.20;99.90
4759;DHT22;2393;50.560;12.636;2023-07-30T01:30:38;17.30;99.90
4759;DHT22;2393;50.560;12.636;2023-07-30T01:33:10;17.20;99.90
4759;DHT22;2393;50.560;12.636;2023-07-30T01:35:41;17.20;99.90
4759;DHT22;2393;50.560;12.636;2023-07-30T01:38:12;17.20;99.90
4759;DHT22;2393;50.560;12.636;2023-07-30T01:40:41;17.20;99.90
4759;DHT22;2393;50.560;12.636;2023-07-30T01:43:10;17.20;99.90
4759;DHT22;2393;50.560;12.636;2023-07-30T01:45:38;17.20;99.90
4759;DHT22;2393;50.560;12.636;2023-07-30T01:48:08;17.20;99.90
4759;DHT22;2393;50.560;12.636;2023-07-30T01:50:36;17.10;99.90
4759;DHT22;2393;50.560;12.636;2023-07-30T01:53:04;17.20;99.90
4759;DHT22;2393;50.560;12.636;2023-07-30T01:55:33;17.20;99.90
4759;DHT22;2393;50.560;12.636;2023-07-30T01:58:01;17.20;99.90
4759;DHT22;2393;50.560;12.636;2023-07-30T02:00:30;17.20;99.90
4759;DHT22;2393;50.560;12.636;2023-07-30T02:03:03;17.20;99.90
4759;DHT22;2393;50.560;12.636;2023-07-30T02:05:31;17.20;99.90
4759;DHT22;2393;50.560;12.636;2023-07-30T02:07:59;17.20;99.90
4759;DHT22;2393;50.560;12.636;2023-07-30T02:10:30;17.20;99.90
4759;DHT22;2393;50.560;12.636;2023-07-30T02:12:59;17.20;99.90
4759;DHT22;2393;50.560;12.636;2023-07-30T02:15:27;17.20;99.90
4759;DHT22;2393;50.560;12.636;2023-07-30T02:17:56;17.20;99.90
4759;DHT22;2393;50.560;12.636;2023-07-30T02:20:24;17.20;99.90
4759;DHT22;2393;50.560;12.636;2023-07-30T02:22:52;17.20;99.90
4759;DHT22;2393;50.560;12.636;2023-07-30T02:25:21;17.20;99.90
4759;DHT22;2393;50.560;12.636;2023-07-30T02:27:49;17.20;99.90
4759;DHT22;2393;50.560;12.636;2023-07-30T02:30:19;17.20;99.90
4759;DHT22;2393;50.560;12.636;2023-07-30T02:32:47;17.30;99.90
4759;DHT22;2393;50.560;12.636;2023-07-30T02:35:15;17.20;99.90
4759;DHT22;2393;50.560;12.636;2023-07-30T02:37:43;17.20;99.90
4759;DHT22;2393;50.560;12.636;2023-07-30T02:40:11;17.30;99.90
4759;DHT22;2393;50.560;12.636;2023-07-30T02:42:39;17.30;99.90
4759;DHT22;2393;50.560;12.636;2023-07-30T02:45:08;17.20;99.90
4759;DHT22;2393;50.560;12.636;2023-07-30T02:47:37;17.30;99.90
4759;DHT22;2393;50.560;12.636;2023-07-30T02:50:06;17.30;99.90
4759;DHT22;2393;50.560;12.636;2023-07-30T02:52:34;17.20;99.90
4759;DHT22;2393;50.560;12.636;2023-07-30T02:55:03;17.20;99.90
4759;DHT22;2393;50.560;12.636;2023-07-30T02:57:31;17.20;99.90
4759;DHT22;2393;50.560;12.636;2023-07-30T02:59:59;17.20;99.90
4759;DHT22;2393;50.560;12.636;2023-07-30T03:02:27;17.30;99.90
4759;DHT22;2393;50.560;12.636;2023-07-30T03:04:57;17.30;99.90
4759;DHT22;2393;50.560;12.636;2023-07-30T03:07:25;17.30;99.90
4759;DHT22;2393;50.560;12.636;2023-07-30T03:09:54;17.40;99.90
4759;DHT22;2393;50.560;12.636;2023-07-30T03:12:22;17.40;99.90
4759;DHT22;2393;50.560;12.636;2023-07-30T03:14:50;17.40;99.90
4759;DHT22;2393;50.560;12.636;2023-07-30T03:17:18;17.40;99.90
4759;DHT22;2393;50.560;12.636;2023-07-30T03:19:46;17.40;99.90
4759;DHT22;2393;50.560;12.636;2023-07-30T03:22:16;17.40;99.90
4759;DHT22;2393;50.560;12.636;2023-07-30T03:24:46;17.40;99.90
4759;DHT22;2393;50.560;12.636;2023-07-30T03:27:14;17.40;99.90
4759;DHT22;2393;50.560;12.636;2023-07-30T03:29:42;17.50;99.90
4759;DHT22;2393;50.560;12.636;2023-07-30T03:32:10;17.50;99.90
4759;DHT22;2393;50.560;12.636;2023-07-30T03:34:38;17.50;99.90
4759;DHT22;2393;50.560;12.636;2023-07-30T03:37:06;17.50;99.90
4759;DHT22;2393;50.560;12.636;2023-07-30T03:39:36;17.50;99.90
4759;DHT22;2393;50.560;12.636;2023-07-30T03:42:04;17.50;99.90
4759;DHT22;2393;50.560;12.636;2023-07-30T03:44:34;17.60;99.90
4759;DHT22;2393;50.560;12.636;2023-07-30T03:47:03;17.60;99.90
4759;DHT22;2393;50.560;12.636;2023-07-30T03:49:31;17.60;99.90
4759;DHT22;2393;50.560;12.636;2023-07-30T03:51:59;17.60;99.90
4759;DHT22;2393;50.560;12.636;2023-07-30T03:54:27;17.60;99.90
4759;DHT22;2393;50.560;12.636;2023-07-30T03:56:57;17.70;99.90
4759;DHT22;2393;50.560;12.636;2023-07-30T03:59:26;17.70;99.90
4759;DHT22;2393;50.560;12.636;2023-07-30T04:01:55;17.70;99.90
4759;DHT22;2393;50.560;12.636;2023-07-30T04:04:24;17.70;99.90
4759;DHT22;2393;50.560;12.636;2023-07-30T04:06:52;17.70;99.90
4759;DHT22;2393;50.560;12.636;2023-07-30T04:09:20;17.70;99.90
4759;DHT22;2393;50.560;12.636;2023-07-30T04:11:50;17.70;99.90
4759;DHT22;2393;50.560;12.636;2023-07-30T04:14:20;17.80;99.90
4759;DHT22;2393;50.560;12.636;2023-07-30T04:16:48;17.80;99.90
4759;DHT22;2393;50.560;12.636;2023-07-30T04:19:16;17.80;99.90
4759;DHT22;2393;50.560;12.636;2023-07-30T04:21:44;17.80;99.90
4759;DHT22;2393;50.560;12.636;2023-07-30T04:24:13;17.80;99.90
4759;DHT22;2393;50.560;12.636;2023-07-30T04:26:41;17.70;99.90
4759;DHT22;2393;50.560;12.636;2023-07-30T04:29:09;17.80;99.90
4759;DHT22;2393;50.560;12.636;2023-07-30T04:31:39;17.80;99.90
4759;DHT22;2393;50.560;12.636;2023-07-30T04:34:07;17.80;99.90
4759;DHT22;2393;50.560;12.636;2023-07-30T04:36:35;17.80;99.90
4759;DHT22;2393;50.560;12.636;2023-07-30T04:39:04;17.80;99.90
4759;DHT22;2393;50.560;12.636;2023-07-30T04:41:34;17.80;99.90
4759;DHT22;2393;50.560;12.636;2023-07-30T04:44:04;17.70;99.90
4759;DHT22;2393;50.560;12.636;2023-07-30T04:46:32;17.70;99.90
4759;DHT22;2393;50.560;12.636;2023-07-30T04:49:03;17.70;99.90
4759;DHT22;2393;50.560;12.636;2023-07-30T04:51:32;17.80;99.90
4759;DHT22;2393;50.560;12.636;2023-07-30T04:54:00;17.70;99.90
4759;DHT22;2393;50.560;12.636;2023-07-30T04:56:28;17.70;99.90
4759;DHT22;2393;50.560;12.636;2023-07-30T04:58:56;17.70;99.90
4759;DHT22;2393;50.560;12.636;2023-07-30T05:01:25;17.70;99.90
4759;DHT22;2393;50.560;12.636;2023-07-30T05:03:53;17.70;99.90
4759;DHT22;2393;50.560;12.636;2023-07-30T05:06:23;17.70;99.90
4759;DHT22;2393;50.560;12.636;2023-07-30T05:08:51;17.80;99.90
4759;DHT22;2393;50.560;12.636;2023-07-30T05:11:19;17.80;99.90
4759;DHT22;2393;50.560;12.636;2023-07-30T05:13:47;17.80;99.90
4759;DHT22;2393;50.560;12.636;2023-07-30T05:16:16;17.80;99.90
4759;DHT22;2393;50.560;12.636;2023-07-30T05:18:44;17.90;99.90
4759;DHT22;2393;50.560;12.636;2023-07-30T05:21:12;17.90;99.90
4759;DHT22;2393;50.560;12.636;2023-07-30T05:23:41;17.90;99.90
4759;DHT22;2393;50.560;12.636;2023-07-30T05:26:10;17.90;99.90
4759;DHT22;2393;50.560;12.636;2023-07-30T05:28:38;18.00;99.90
4759;DHT22;2393;50.560;12.636;2023-07-30T05:31:06;18.00;99.90
4759;DHT22;2393;50.560;12.636;2023-07-30T05:33:34;18.00;99.90
4759;DHT22;2393;50.560;12.636;2023-07-30T05:36:02;18.10;99.90
4759;DHT22;2393;50.560;12.636;2023-07-30T05:38:30;18.10;99.90
4759;DHT22;2393;50.560;12.636;2023-07-30T05:41:01;18.10;99.90
4759;DHT22;2393;50.560;12.636;2023-07-30T05:43:29;18.10;99.90
4759;DHT22;2393;50.560;12.636;2023-07-30T05:45:57;18.10;99.90
4759;DHT22;2393;50.560;12.636;2023-07-30T05:48:25;18.20;99.90
4759;DHT22;2393;50.560;12.636;2023-07-30T05:50:53;18.20;99.90
4759;DHT22;2393;50.560;12.636;2023-07-30T05:53:21;18.30;99.90
4759;DHT22;2393;50.560;12.636;2023-07-30T05:55:49;18.30;99.90
4759;DHT22;2393;50.560;12.636;2023-07-30T05:58:19;18.30;99.90
4759;DHT22;2393;50.560;12.636;2023-07-30T06:00:47;18.30;99.90
4759;DHT22;2393;50.560;12.636;2023-07-30T06:03:15;18.40;99.90
4759;DHT22;2393;50.560;12.636;2023-07-30T06:05:43;18.40;99.90
4759;DHT22;2393;50.560;12.636;2023-07-30T06:08:11;18.40;99.90
4759;DHT22;2393;50.560;12.636;2023-07-30T06:10:39;18.40;99.90
4759;DHT22;2393;50.560;12.636;2023-07-30T06:13:08;18.40;99.90
4759;DHT22;2393;50.560;12.636;2023-07-30T06:15:37;18.40;99.90
4759;DHT22;2393;50.560;12.636;2023-07-30T06:18:05;18.50;99.90
4759;DHT22;2393;50.560;12.636;2023-07-30T06:20:34;18.50;99.90
4759;DHT22;2393;50.560;12.636;2023-07-30T06:23:02;18.70;99.90
4759;DHT22;2393;50.560;12.636;2023-07-30T06:25:31;18.90;99.90
4759;DHT22;2393;50.560;12.636;2023-07-30T06:27:59;19.20;99.90
4759;DHT22;2393;50.560;12.636;2023-07-30T06:30:27;19.40;99.90
4759;DHT22;2393;50.560;12.636;2023-07-30T06:32:56;19.60;99.90
4759;DHT22;2393;50.560;12.636;2023-07-30T06:35:25;19.80;99.90
4759;DHT22;2393;50.560;12.636;2023-07-30T06:37:53;20.00;99.90
4759;DHT22;2393;50.560;12.636;2023-07-30T06:40:21;20.10;99.90
4759;DHT22;2393;50.560;12.636;2023-07-30T06:42:49;20.30;99.90
4759;DHT22;2393;50.560;12.636;2023-07-30T06:45:17;20.40;99.90
4759;DHT22;2393;50.560;12.636;2023-07-30T06:47:45;20.50;99.90
4759;DHT22;2393;50.560;12.636;2023-07-30T06:50:15;20.60;99.90
4759;DHT22;2393;50.560;12.636;2023-07-30T06:52:43;20.70;99.90
4759;DHT22;2393;50.560;12.636;2023-07-30T06:55:11;20.80;99.90
4759;DHT22;2393;50.560;12.636;2023-07-30T06:57:39;20.80;99.90
4759;DHT22;2393;50.560;12.636;2023-07-30T07:00:08;20.70;99.90
4759;DHT22;2393;50.560;12.636;2023-07-30T07:02:36;20.60;99.90
4759;DHT22;2393;50.560;12.636;2023-07-30T07:05:05;20.50;99.90
4759;DHT22;2393;50.560;12.636;2023-07-30T07:07:34;20.60;99.90
4759;DHT22;2393;50.560;12.636;2023-07-30T07:10:03;20.50;99.90
4759;DHT22;2393;50.560;12.636;2023-07-30T07:12:31;20.50;99.90
4759;DHT22;2393;50.560;12.636;2023-07-30T07:14:59;20.60;99.90
4759;DHT22;2393;50.560;12.636;2023-07-30T07:17:28;20.60;99.90
4759;DHT22;2393;50.560;12.636;2023-07-30T07:19:56;20.60;99.90
4759;DHT22;2393;50.560;12.636;2023-07-30T07:22:24;20.60;99.90
4759;DHT22;2393;50.560;12.636;2023-07-30T07:24:54;20.60;99.90
4759;DHT22;2393;50.560;12.636;2023-07-30T07:27:22;20.60;99.90
4759;DHT22;2393;50.560;12.636;2023-07-30T07:29:51;20.60;99.90
4759;DHT22;2393;50.560;12.636;2023-07-30T07:32:19;20.60;99.90
4759;DHT22;2393;50.560;12.636;2023-07-30T07:34:48;20.50;99.90
4759;DHT22;2393;50.560;12.636;2023-07-30T07:37:16;20.50;99.90
4759;DHT22;2393;50.560;12.636;2023-07-30T07:39:45;20.40;99.90
4759;DHT22;2393;50.560;12.636;2023-07-30T07:42:15;20.30;99.90
4759;DHT22;2393;50.560;12.636;2023-07-30T07:44:43;20.30;99.90
4759;DHT22;2393;50.560;12.636;2023-07-30T07:47:13;20.30;99.90
4759;DHT22;2393;50.560;12.636;2023-07-30T07:49:41;20.30;99.90
4759;DHT22;2393;50.560;12.636;2023-07-30T07:52:10;20.40;99.90
4759;DHT22;2393;50.560;12.636;2023-07-30T07:54:38;20.50;99.90
4759;DHT22;2393;50.560;12.636;2023-07-30T07:57:08;20.50;99.90
4759;DHT22;2393;50.560;12.636;2023-07-30T07:59:38;20.50;99.90
4759;DHT22;2393;50.560;12.636;2023-07-30T08:02:08;20.60;99.90
4759;DHT22;2393;50.560;12.636;2023-07-30T08:04:36;20.60;99.90
4759;DHT22;2393;50.560;12.636;2023-07-30T08:07:05;20.70;99.90
4759;DHT22;2393;50.560;12.636;2023-07-30T08:09:36;20.80;99.90
4759;DHT22;2393;50.560;12.636;2023-07-30T08:12:05;20.90;99.90
4759;DHT22;2393;50.560;12.636;2023-07-30T08:14:34;21.00;99.90
4759;DHT22;2393;50.560;12.636;2023-07-30T08:17:04;21.10;99.90
4759;DHT22;2393;50.560;12.636;2023-07-30T08:19:32;21.20;99.90
4759;DHT22;2393;50.560;12.636;2023-07-30T08:22:00;21.30;99.90
4759;DHT22;2393;50.560;12.636;2023-07-30T08:24:28;21.40;99.90
4759;DHT22;2393;50.560;12.636;2023-07-30T08:26:57;21.40;99.90
4759;DHT22;2393;50.560;12.636;2023-07-30T08:29:25;21.40;99.90
4759;DHT22;2393;50.560;12.636;2023-07-30T08:31:54;21.50;99.90
4759;DHT22;2393;50.560;12.636;2023-07-30T08:34:23;21.50;99.90
4759;DHT22;2393;50.560;12.636;2023-07-30T08:36:52;21.70;99.90
4759;DHT22;2393;50.560;12.636;2023-07-30T08:39:20;22.00;99.90
4759;DHT22;2393;50.560;12.636;2023-07-30T08:41:49;22.20;99.90
4759;DHT22;2393;50.560;12.636;2023-07-30T08:44:17;22.30;99.90
4759;DHT22;2393;50.560;12.636;2023-07-30T08:46:45;22.40;99.90
4759;DHT22;2393;50.560;12.636;2023-07-30T08:49:13;22.30;99.90
4759;DHT22;2393;50.560;12.636;2023-07-30T08:51:44;22.60;99.90
4759;DHT22;2393;50.560;12.636;2023-07-30T08:54:14;22.80;99.90
4759;DHT22;2393;50.560;12.636;2023-07-30T08:56:44;22.90;99.90
4759;DHT22;2393;50.560;12.636;2023-07-30T08:59:12;23.00;99.90
4759;DHT22;2393;50.560;12.636;2023-07-30T09:01:43;23.10;99.90
4759;DHT22;2393;50.560;12.636;2023-07-30T09:08:51;23.20;99.90
4759;DHT22;2393;50.560;12.636;2023-07-30T09:11:19;23.30;99.90
4759;DHT22;2393;50.560;12.636;2023-07-30T09:13:47;23.20;99.90
4759;DHT22;2393;50.560;12.636;2023-07-30T09:16:15;23.20;99.90
4759;DHT22;2393;50.560;12.636;2023-07-30T09:18:45;23.10;99.90
4759;DHT22;2393;50.560;12.636;2023-07-30T09:21:17;23.20;99.90
4759;DHT22;2393;50.560;12.636;2023-07-30T09:23:46;23.20;99.90
4759;DHT22;2393;50.560;12.636;2023-07-30T09:26:16;23.40;99.90
4759;DHT22;2393;50.560;12.636;2023-07-30T09:28:44;23.70;99.90
4759;DHT22;2393;50.560;12.636;2023-07-30T09:31:12;23.90;99.90
4759;DHT22;2393;50.560;12.636;2023-07-30T09:33:47;24.10;99.90
4759;DHT22;2393;50.560;12.636;2023-07-30T09:36:19;24.40;99.90
4759;DHT22;2393;50.560;12.636;2023-07-30T09:38:47;24.70;99.90
4759;DHT22;2393;50.560;12.636;2023-07-30T09:41:18;25.00;99.90
4759;DHT22;2393;50.560;12.636;2023-07-30T09:43:46;25.20;99.90
4759;DHT22;2393;50.560;12.636;2023-07-30T09:46:14;25.40;99.90
4759;DHT22;2393;50.560;12.636;2023-07-30T09:48:43;25.40;99.90
4759;DHT22;2393;50.560;12.636;2023-07-30T09:51:11;25.50;99.90
4759;DHT22;2393;50.560;12.636;2023-07-30T09:53:39;25.50;99.90
4759;DHT22;2393;50.560;12.636;2023-07-30T09:56:08;25.40;99.90
4759;DHT22;2393;50.560;12.636;2023-07-30T09:58:37;25.20;99.90
4759;DHT22;2393;50.560;12.636;2023-07-30T10:01:06;25.10;99.90
4759;DHT22;2393;50.560;12.636;2023-07-30T10:03:35;25.00;99.90
4759;DHT22;2393;50.560;12.636;2023-07-30T10:06:03;25.00;99.90
4759;DHT22;2393;50.560;12.636;2023-07-30T10:08:35;25.40;99.90
4759;DHT22;2393;50.560;12.636;2023-07-30T10:11:08;25.60;99.90
4759;DHT22;2393;50.560;12.636;2023-07-30T10:13:40;25.90;99.90
4759;DHT22;2393;50.560;12.636;2023-07-30T10:16:09;26.30;99.90
4759;DHT22;2393;50.560;12.636;2023-07-30T10:18:38;26.50;99.90
4759;DHT22;2393;50.560;12.636;2023-07-30T10:21:07;26.70;99.90
4759;DHT22;2393;50.560;12.636;2023-07-30T10:23:38;26.90;99.90
4759;DHT22;2393;50.560;12.636;2023-07-30T10:26:13;27.20;99.90
4759;DHT22;2393;50.560;12.636;2023-07-30T10:28:42;27.30;99.90
4759;DHT22;2393;50.560;12.636;2023-07-30T10:31:11;27.40;99.90
4759;DHT22;2393;50.560;12.636;2023-07-30T10:33:44;27.30;99.90
4759;DHT22;2393;50.560;12.636;2023-07-30T10:36:13;27.10;99.90
4759;DHT22;2393;50.560;12.636;2023-07-30T10:38:42;26.80;99.90
4759;DHT22;2393;50.560;12.636;2023-07-30T10:41:12;26.50;99.90
4759;DHT22;2393;50.560;12.636;2023-07-30T10:43:43;26.30;99.90
4759;DHT22;2393;50.560;12.636;2023-07-30T10:46:17;26.10;99.90
4759;DHT22;2393;50.560;12.636;2023-07-30T10:48:47;26.30;99.90
4759;DHT22;2393;50.560;12.636;2023-07-30T10:51:18;26.60;99.90
4759;DHT22;2393;50.560;12.636;2023-07-30T10:53:48;26.90;99.90
4759;DHT22;2393;50.560;12.636;2023-07-30T10:56:18;27.20;99.90
4759;DHT22;2393;50.560;12.636;2023-07-30T10:58:51;27.40;99.90
4759;DHT22;2393;50.560;12.636;2023-07-30T11:01:20;27.50;99.90
4759;DHT22;2393;50.560;12.636;2023-07-30T11:03:49;27.40;99.90
4759;DHT22;2393;50.560;12.636;2023-07-30T11:06:22;27.20;99.90
4759;DHT22;2393;50.560;12.636;2023-07-30T11:08:51;27.10;99.90
4759;DHT22;2393;50.560;12.636;2023-07-30T11:14:22;27.00;99.90
4759;DHT22;2393;50.560;12.636;2023-07-30T11:16:54;26.90;99.90
4759;DHT22;2393;50.560;12.636;2023-07-30T11:19:25;26.60;99.90
4759;DHT22;2393;50.560;12.636;2023-07-30T11:21:55;26.40;99.90
4759;DHT22;2393;50.560;12.636;2023-07-30T11:24:33;26.30;99.90
4759;DHT22;2393;50.560;12.636;2023-07-30T11:27:02;26.30;99.90
4759;DHT22;2393;50.560;12.636;2023-07-30T11:29:32;26.00;99.90
4759;DHT22;2393;50.560;12.636;2023-07-30T11:32:00;25.80;99.90
4759;DHT22;2393;50.560;12.636;2023-07-30T11:34:31;25.50;99.90
4759;DHT22;2393;50.560;12.636;2023-07-30T11:37:03;25.30;99.90
4759;DHT22;2393;50.560;12.636;2023-07-30T11:39:32;25.20;99.90
4759;DHT22;2393;50.560;12.636;2023-07-30T11:42:00;25.00;99.90
4759;DHT22;2393;50.560;12.636;2023-07-30T11:44:31;24.90;99.90
4759;DHT22;2393;50.560;12.636;2023-07-30T11:47:00;24.70;99.90
4759;DHT22;2393;50.560;12.636;2023-07-30T11:49:28;24.50;99.90
4759;DHT22;2393;50.560;12.636;2023-07-30T11:52:04;24.20;99.90
4759;DHT22;2393;50.560;12.636;2023-07-30T11:54:33;24.10;99.90
4759;DHT22;2393;50.560;12.636;2023-07-30T11:57:01;24.00;99.90
4759;DHT22;2393;50.560;12.636;2023-07-30T11:59:32;23.90;99.90
4759;DHT22;2393;50.560;12.636;2023-07-30T12:02:00;23.60;99.90
4759;DHT22;2393;50.560;12.636;2023-07-30T12:04:30;23.30;99.90
4759;DHT22;2393;50.560;12.636;2023-07-30T12:06:59;22.90;99.90
4759;DHT22;2393;50.560;12.636;2023-07-30T12:09:29;22.60;99.90
4759;DHT22;2393;50.560;12.636;2023-07-30T12:12:04;22.30;99.90
4759;DHT22;2393;50.560;12.636;2023-07-30T12:14:44;22.10;99.90
4759;DHT22;2393;50.560;12.636;2023-07-30T12:17:20;21.90;99.90
4759;DHT22;2393;50.560;12.636;2023-07-30T12:19:48;21.80;99.90
4759;DHT22;2393;50.560;12.636;2023-07-30T12:22:16;21.80;99.90
4759;DHT22;2393;50.560;12.636;2023-07-30T12:24:44;21.70;99.90
4759;DHT22;2393;50.560;12.636;2023-07-30T12:27:12;21.80;99.90
4759;DHT22;2393;50.560;12.636;2023-07-30T12:29:40;21.90;99.90
4759;DHT22;2393;50.560;12.636;2023-07-30T12:32:11;22.20;99.90
4759;DHT22;2393;50.560;12.636;2023-07-30T12:34:39;22.40;99.90
4759;DHT22;2393;50.560;12.636;2023-07-30T12:37:07;22.60;99.90
4759;DHT22;2393;50.560;12.636;2023-07-30T12:39:36;22.90;99.90
4759;DHT22;2393;50.560;12.636;2023-07-30T12:42:04;23.10;99.90
4759;DHT22;2393;50.560;12.636;2023-07-30T12:44:32;23.40;99.90
4759;DHT22;2393;50.560;12.636;2023-07-30T12:47:01;23.50;99.90
4759;DHT22;2393;50.560;12.636;2023-07-30T12:49:30;23.70;99.90
4759;DHT22;2393;50.560;12.636;2023-07-30T12:51:58;23.90;99.90
4759;DHT22;2393;50.560;12.636;2023-07-30T12:54:26;24.10;99.90
4759;DHT22;2393;50.560;12.636;2023-07-30T12:56:54;24.20;99.90
4759;DHT22;2393;50.560;12.636;2023-07-30T12:59:23;24.20;99.90
4759;DHT22;2393;50.560;12.636;2023-07-30T13:01:51;24.00;99.90
4759;DHT22;2393;50.560;12.636;2023-07-30T13:04:20;24.00;99.90
4759;DHT22;2393;50.560;12.636;2023-07-30T13:06:50;24.00;99.90
4759;DHT22;2393;50.560;12.636;2023-07-30T13:09:18;23.90;99.90
4759;DHT22;2393;50.560;12.636;2023-07-30T13:11:46;23.80;99.90
4759;DHT22;2393;50.560;12.636;2023-07-30T13:14:15;23.70;99.90
4759;DHT22;2393;50.560;12.636;2023-07-30T13:16:43;23.60;99.90
4759;DHT22;2393;50.560;12.636;2023-07-30T13:19:11;23.40;99.90
4759;DHT22;2393;50.560;12.636;2023-07-30T13:21:39;23.20;99.90
4759;DHT22;2393;50.560;12.636;2023-07-30T13:25:06;22.90;99.90
4759;DHT22;2393;50.560;12.636;2023-07-30T13:27:35;22.70;99.90
4759;DHT22;2393;50.560;12.636;2023-07-30T13:30:04;22.30;99.90
4759;DHT22;2393;50.560;12.636;2023-07-30T13:32:32;22.00;99.90
4759;DHT22;2393;50.560;12.636;2023-07-30T13:35:01;21.70;99.90
4759;DHT22;2393;50.560;12.636;2023-07-30T13:37:30;21.40;99.90
4759;DHT22;2393;50.560;12.636;2023-07-30T13:39:58;21.10;99.90
4759;DHT22;2393;50.560;12.636;2023-07-30T13:42:27;20.80;99.90
4759;DHT22;2393;50.560;12.636;2023-07-30T13:44:55;20.60;99.90
4759;DHT22;2393;50.560;12.636;2023-07-30T13:47:24;20.40;99.90
4759;DHT22;2393;50.560;12.636;2023-07-30T13:49:52;20.20;99.90
4759;DHT22;2393;50.560;12.636;2023-07-30T13:52:21;20.10;99.90
4759;DHT22;2393;50.560;12.636;2023-07-30T13:54:49;19.90;99.90
4759;DHT22;2393;50.560;12.636;2023-07-30T13:57:21;19.70;99.90
4759;DHT22;2393;50.560;12.636;2023-07-30T13:59:52;19.70;99.90
4759;DHT22;2393;50.560;12.636;2023-07-30T14:02:20;19.60;99.90
4759;DHT22;2393;50.560;12.636;2023-07-30T14:04:48;19.60;99.90
4759;DHT22;2393;50.560;12.636;2023-07-30T14:07:16;19.60;99.90
4759;DHT22;2393;50.560;12.636;2023-07-30T14:09:44;19.60;99.90
4759;DHT22;2393;50.560;12.636;2023-07-30T14:12:13;19.70;99.90
4759;DHT22;2393;50.560;12.636;2023-07-30T14:14:41;19.80;99.90
4759;DHT22;2393;50.560;12.636;2023-07-30T14:17:10;19.80;99.90
4759;DHT22;2393;50.560;12.636;2023-07-30T14:19:42;19.90;99.90
4759;DHT22;2393;50.560;12.636;2023-07-30T14:22:10;19.90;99.90
4759;DHT22;2393;50.560;12.636;2023-07-30T14:24:38;19.90;99.90
4759;DHT22;2393;50.560;12.636;2023-07-30T14:27:10;19.90;99.90
4759;DHT22;2393;50.560;12.636;2023-07-30T14:29:38;19.90;99.90
4759;DHT22;2393;50.560;12.636;2023-07-30T14:32:06;19.90;99.90
4759;DHT22;2393;50.560;12.636;2023-07-30T14:34:36;20.00;99.90
4759;DHT22;2393;50.560;12.636;2023-07-30T14:37:04;20.00;99.90
4759;DHT22;2393;50.560;12.636;2023-07-30T14:39:35;19.90;99.90
4759;DHT22;2393;50.560;12.636;2023-07-30T14:42:04;20.00;99.90
4759;DHT22;2393;50.560;12.636;2023-07-30T14:44:32;20.00;99.90
4759;DHT22;2393;50.560;12.636;2023-07-30T14:47:00;20.10;99.90
4759;DHT22;2393;50.560;12.636;2023-07-30T14:49:31;20.20;99.90
4759;DHT22;2393;50.560;12.636;2023-07-30T14:52:00;20.40;99.90
4759;DHT22;2393;50.560;12.636;2023-07-30T14:54:30;20.70;99.90
4759;DHT22;2393;50.560;12.636;2023-07-30T14:56:58;20.90;99.90
4759;DHT22;2393;50.560;12.636;2023-07-30T14:59:27;21.00;99.90
4759;DHT22;2393;50.560;12.636;2023-07-30T15:01:55;21.00;99.90
4759;DHT22;2393;50.560;12.636;2023-07-30T15:04:23;21.00;99.90
4759;DHT22;2393;50.560;12.636;2023-07-30T15:06:51;21.10;99.90
4759;DHT22;2393;50.560;12.636;2023-07-30T15:09:20;21.20;99.90
4759;DHT22;2393;50.560;12.636;2023-07-30T15:11:49;21.20;99.90
4759;DHT22;2393;50.560;12.636;2023-07-30T15:14:17;21.10;99.90
4759;DHT22;2393;50.560;12.636;2023-07-30T15:16:45;21.00;99.90
4759;DHT22;2393;50.560;12.636;2023-07-30T15:19:13;20.90;99.90
4759;DHT22;2393;50.560;12.636;2023-07-30T15:21:42;20.80;99.90
4759;DHT22;2393;50.560;12.636;2023-07-30T15:24:11;20.70;99.90
4759;DHT22;2393;50.560;12.636;2023-07-30T15:26:40;20.50;99.90
4759;DHT22;2393;50.560;12.636;2023-07-30T15:29:08;20.30;99.90
4759;DHT22;2393;50.560;12.636;2023-07-30T15:31:37;20.10;99.90
4759;DHT22;2393;50.560;12.636;2023-07-30T15:34:05;19.90;99.90
4759;DHT22;2393;50.560;12.636;2023-07-30T15:36:34;19.80;99.90
4759;DHT22;2393;50.560;12.636;2023-07-30T15:39:04;19.50;99.90
4759;DHT22;2393;50.560;12.636;2023-07-30T15:41:32;19.30;99.90
4759;DHT22;2393;50.560;12.636;2023-07-30T15:44:02;19.20;99.90
4759;DHT22;2393;50.560;12.636;2023-07-30T15:46:36;19.20;99.90
4759;DHT22;2393;50.560;12.636;2023-07-30T15:49:04;19.10;99.90
4759;DHT22;2393;50.560;12.636;2023-07-30T15:51:33;19.10;99.90
4759;DHT22;2393;50.560;12.636;2023-07-30T15:54:01;19.00;99.90
4759;DHT22;2393;50.560;12.636;2023-07-30T15:56:29;18.90;99.90
4759;DHT22;2393;50.560;12.636;2023-07-30T15:58:57;18.80;99.90
4759;DHT22;2393;50.560;12.636;2023-07-30T16:01:26;18.80;99.90
4759;DHT22;2393;50.560;12.636;2023-07-30T16:03:55;18.70;99.90